Silver Lion — V2QQ4 — position and weather

sailwx.info

Track history (hours):
 
Tides and Currents Weather Stations Pressure Air Temp Water Temp Dewpoint Dewpoint Depression Visibility Wind Speed Wind Dir Waves Ship Positions

Silver Lion

Last reported at 2018-Feb-18 00:47 UTC. Time now 2018-Feb-19 00:21 UTC.
Position N 45°12' E 036°28'.

Length 127 m; draft 4.5 m.

Type: Cargo ship. MMSI: 304072000.

Date/timePositionNaut miles runAvg speedWind from/ knotsBaromVisibWave heightAir tempDewpointWater temp
2018-Feb-18 00:47N 45°12' E 036°28'2 8.2
2018-Feb-18 00:30N 45°14' E 036°28'4 7.4
2018-Feb-18 00:00N 45°17' E 036°29'4 7.5
2018-Feb-17 23:30N 45°19' E 036°33'4 7.9
2018-Feb-17 23:00N 45°21' E 036°38'4 7.1
2018-Feb-17 22:30N 45°24' E 036°40'4 7.9
2018-Feb-17 22:00N 45°28' E 036°42'4 8.0
2018-Feb-17 21:30N 45°32' E 036°42'4 7.9
2018-Feb-17 20:59N 45°36' E 036°44'4 7.9
2018-Feb-17 20:30N 45°39' E 036°46'  
2018-Feb-10 01:03N 45°37' E 036°50'0 8.1
2018-Feb-10 01:00N 45°36' E 036°50'4 8.2
2018-Feb-10 00:30N 45°33' E 036°47'4 8.2
2018-Feb-10 00:00N 45°29' E 036°44'4 8.2
2018-Feb-09 23:30N 45°25' E 036°42'4 8.1
2018-Feb-09 23:00N 45°22' E 036°40'2 6.6
2018-Feb-09 22:46N 45°21' E 036°39'2 7.8
2018-Feb-09 22:30N 45°20' E 036°36'4 7.8
2018-Feb-09 22:01N 45°19' E 036°31'3 5.5
2018-Feb-09 21:31N 45°16' E 036°29'3 5.8
2018-Feb-09 21:01N 45°14' E 036°30'  
Track history (hours):
 
Tides and Currents Weather Stations Pressure Air Temp Water Temp Dewpoint Dewpoint Depression Visibility Wind Speed Wind Dir Waves Ship Positions

Silver Lion

Last reported at 2018-Feb-18 00:47 UTC. Time now 2018-Feb-19 00:21 UTC.
Position N 45°12' E 036°28'.

Length 127 m; draft 4.5 m.

Type: Cargo ship. MMSI: 304072000.

Date/timePositionNaut miles runAvg speedWind from/ knotsBaromVisibWave heightAir tempDewpointWater temp
2018-Feb-18 00:47N 45°12' E 036°28'2 8.2
2018-Feb-18 00:30N 45°14' E 036°28'4 7.4
2018-Feb-18 00:00N 45°17' E 036°29'4 7.5
2018-Feb-17 23:30N 45°19' E 036°33'4 7.9
2018-Feb-17 23:00N 45°21' E 036°38'4 7.1
2018-Feb-17 22:30N 45°24' E 036°40'4 7.9
2018-Feb-17 22:00N 45°28' E 036°42'4 8.0
2018-Feb-17 21:30N 45°32' E 036°42'4 7.9
2018-Feb-17 20:59N 45°36' E 036°44'4 7.9
2018-Feb-17 20:30N 45°39' E 036°46'  
2018-Feb-10 01:03N 45°37' E 036°50'0 8.1
2018-Feb-10 01:00N 45°36' E 036°50'4 8.2
2018-Feb-10 00:30N 45°33' E 036°47'4 8.2
2018-Feb-10 00:00N 45°29' E 036°44'4 8.2
2018-Feb-09 23:30N 45°25' E 036°42'4 8.1
2018-Feb-09 23:00N 45°22' E 036°40'2 6.6
2018-Feb-09 22:46N 45°21' E 036°39'2 7.8
2018-Feb-09 22:30N 45°20' E 036°36'4 7.8
2018-Feb-09 22:01N 45°19' E 036°31'3 5.5
2018-Feb-09 21:31N 45°16' E 036°29'3 5.8
2018-Feb-09 21:01N 45°14' E 036°30'  

Dump ship's entire track history